createdAt,value
2023-03-15T00:00:32.755Z,0.17
2023-03-15T00:05:38.848Z,0.15
2023-03-15T00:10:43.999Z,0.16
2023-03-15T00:15:54.126Z,0.06
2023-03-15T00:20:56.038Z,-0.09
2023-03-15T00:26:02.600Z,-0.19
2023-03-15T00:31:15.309Z,-0.25
2023-03-15T00:36:17.111Z,-0.32
2023-03-15T00:41:20.078Z,-0.36
2023-03-15T00:46:21.998Z,-0.39
2023-03-15T00:51:24.440Z,-0.44
2023-03-15T00:56:30.284Z,-0.50
2023-03-15T01:01:33.090Z,-0.54
2023-03-15T01:06:37.007Z,-0.60
2023-03-15T01:11:41.018Z,-0.59
2023-03-15T01:16:45.114Z,-0.58
2023-03-15T01:21:47.890Z,-0.67
2023-03-15T01:26:52.002Z,-0.71
2023-03-15T01:31:56.003Z,-0.75
2023-03-15T01:37:00.925Z,-0.79
2023-03-15T01:42:08.842Z,-0.85
2023-03-15T01:47:15.479Z,-0.93
2023-03-15T01:52:23.402Z,-0.94
2023-03-15T01:57:39.165Z,-0.99
2023-03-15T02:02:58.578Z,-0.96
2023-03-15T02:08:07.401Z,-0.98
2023-03-15T02:13:22.734Z,-0.95
2023-03-15T02:18:27.110Z,-0.82
2023-03-15T02:23:29.404Z,-0.63
2023-03-15T02:28:32.409Z,-0.44
2023-03-15T02:33:39.093Z,-0.39
2023-03-15T02:38:45.566Z,-0.38
2023-03-15T02:43:53.191Z,-0.33
2023-03-15T02:49:00.065Z,-0.36
2023-03-15T02:54:05.717Z,-0.47
2023-03-15T02:59:09.668Z,-0.60
2023-03-15T03:04:14.213Z,-0.76
2023-03-15T03:09:19.221Z,-0.87
2023-03-15T03:14:26.081Z,-0.95
2023-03-15T03:19:29.971Z,-1.01
2023-03-15T03:24:32.389Z,-1.06
2023-03-15T03:29:34.230Z,-1.13
2023-03-15T03:34:39.811Z,-1.14
2023-03-15T03:39:42.251Z,-1.20
2023-03-15T03:44:43.991Z,-1.25
2023-03-15T03:49:48.373Z,-1.31
2023-03-15T03:54:50.897Z,-1.34
2023-03-15T03:59:58.656Z,-1.31
2023-03-15T04:05:00.979Z,-1.35
2023-03-15T04:10:05.878Z,-1.40
2023-03-15T04:15:10.044Z,-1.39
2023-03-15T04:20:12.940Z,-1.37
2023-03-15T04:25:26.726Z,-1.41
2023-03-15T04:30:39.463Z,-1.40
2023-03-15T04:35:54.535Z,-1.44
2023-03-15T04:41:16.218Z,-1.49
2023-03-15T04:46:35.021Z,-1.55
2023-03-15T04:51:59.673Z,-1.59
2023-03-15T04:57:06.247Z,-1.62
2023-03-15T05:02:18.983Z,-1.63
2023-03-15T05:07:46.072Z,-1.63
2023-03-15T05:13:08.077Z,-1.61
2023-03-15T05:18:32.672Z,-1.64
2023-03-15T05:23:55.363Z,-1.60
2023-03-15T05:29:03.701Z,-1.60
2023-03-15T05:34:25.787Z,-1.59
2023-03-15T05:39:49.631Z,-1.69
2023-03-15T05:45:10.113Z,-1.70
2023-03-15T05:50:23.362Z,-1.70
2023-03-15T05:55:52.273Z,-1.73
2023-03-15T06:01:15.024Z,-1.72
2023-03-15T06:06:33.776Z,-1.73
2023-03-15T06:11:41.213Z,-1.74
2023-03-15T06:16:49.055Z,-1.73
2023-03-15T06:21:51.848Z,-1.73
2023-03-15T06:27:04.321Z,-1.25
2023-03-15T06:32:10.088Z,-1.13
2023-03-15T06:37:29.088Z,-0.71
2023-03-15T06:42:36.904Z,-0.17
2023-03-15T06:47:39.028Z,-0.16
2023-03-15T06:52:45.407Z,-0.25
2023-03-15T06:57:48.168Z,-0.36
2023-03-15T07:02:49.931Z,-0.32
2023-03-15T07:07:56.420Z,-0.37
2023-03-15T07:12:58.078Z,-0.31
2023-03-15T07:18:00.619Z,-0.23
2023-03-15T07:23:09.407Z,-0.13
2023-03-15T07:28:18.483Z,0.18
2023-03-15T07:33:22.561Z,0.76
2023-03-15T07:38:30.886Z,0.72
2023-03-15T07:43:36.105Z,0.43
2023-03-15T07:48:49.627Z,0.45
2023-03-15T07:53:53.883Z,0.60
2023-03-15T07:58:55.604Z,1.17
2023-03-15T08:04:02.670Z,1.52
2023-03-15T08:09:06.925Z,1.69
2023-03-15T08:14:08.653Z,1.80
2023-03-15T08:19:10.416Z,2.36
2023-03-15T08:24:12.795Z,2.78
2023-03-15T08:29:15.409Z,2.97
2023-03-15T08:34:19.688Z,2.68
2023-03-15T08:39:24.043Z,2.77
2023-03-15T08:44:25.755Z,2.99
2023-03-15T08:49:29.956Z,2.79
2023-03-15T08:54:41.030Z,2.68
2023-03-15T08:59:42.903Z,2.73
2023-03-15T09:04:47.363Z,2.37
2023-03-15T09:09:49.162Z,2.09
2023-03-15T09:14:53.121Z,1.93
2023-03-15T09:19:54.788Z,1.84
2023-03-15T09:24:57.724Z,1.72
2023-03-15T09:29:59.452Z,1.79
2023-03-15T09:35:04.411Z,1.86
2023-03-15T09:40:31.666Z,1.79
2023-03-15T09:45:42.811Z,1.84
2023-03-15T09:50:50.742Z,1.90
2023-03-15T09:55:55.034Z,2.07
2023-03-15T10:01:16.168Z,2.30
2023-03-15T10:06:29.983Z,2.90
2023-03-15T10:11:59.640Z,3.35
2023-03-15T10:17:05.373Z,2.47
2023-03-15T10:22:16.223Z,1.51
2023-03-15T10:27:30.911Z,1.36
2023-03-15T10:32:38.497Z,1.51
2023-03-15T10:37:42.782Z,1.55
2023-03-15T10:42:52.149Z,1.45
2023-03-15T10:48:00.556Z,1.35
2023-03-15T10:53:16.481Z,1.38
2023-03-15T10:58:18.153Z,1.55
2023-03-15T11:03:24.092Z,2.07
2023-03-15T11:08:39.875Z,2.47
2023-03-15T11:13:59.471Z,2.55
2023-03-15T11:19:01.669Z,2.76
2023-03-15T11:24:08.285Z,2.73
2023-03-15T11:29:29.961Z,2.63
2023-03-15T11:34:41.844Z,2.56
2023-03-15T11:39:53.725Z,2.65
2023-03-15T11:45:07.308Z,2.89
2023-03-15T11:50:14.587Z,3.23
2023-03-15T11:55:20.234Z,4.15
2023-03-15T12:00:36.384Z,5.42
2023-03-15T12:05:42.729Z,6.37
2023-03-15T12:10:50.739Z,6.91
2023-03-15T12:15:53.335Z,7.35
2023-03-15T12:21:10.469Z,8.31
2023-03-15T12:26:31.012Z,7.99
2023-03-15T12:32:01.934Z,8.19
2023-03-15T12:37:12.659Z,9.12
2023-03-15T12:42:38.772Z,9.61
2023-03-15T12:48:06.507Z,10.41
2023-03-15T12:53:19.826Z,10.58
2023-03-15T12:58:27.089Z,10.92
2023-03-15T13:03:34.726Z,11.32
2023-03-15T13:09:00.196Z,11.66
2023-03-15T13:14:29.114Z,13.24
2023-03-15T13:19:45.071Z,13.68
2023-03-15T13:24:57.827Z,13.55
2023-03-15T13:29:59.542Z,13.04
2023-03-15T13:35:03.885Z,13.11
2023-03-15T13:40:13.908Z,14.79
2023-03-15T13:45:16.928Z,16.93
2023-03-15T13:50:20.678Z,17.12
2023-03-15T13:55:25.294Z,16.89
2023-03-15T14:00:27.282Z,16.76
2023-03-15T14:05:42.351Z,15.90
2023-03-15T14:10:46.301Z,15.86
2023-03-15T14:15:48.230Z,13.65
2023-03-15T14:21:00.402Z,16.44
2023-03-15T14:26:28.231Z,18.32
2023-03-15T14:31:39.668Z,18.46
2023-03-15T14:36:45.342Z,16.79
2023-03-15T14:41:49.288Z,16.25
2023-03-15T14:46:51.297Z,17.54
2023-03-15T14:52:00.309Z,17.05
2023-03-15T14:57:05.084Z,15.96
2023-03-15T15:02:13.898Z,16.79
2023-03-15T15:07:20.400Z,18.21
2023-03-15T15:12:24.373Z,19.23
2023-03-15T15:17:28.849Z,18.35
2023-03-15T15:22:35.414Z,18.33
2023-03-15T15:27:39.500Z,17.21
2023-03-15T15:32:41.577Z,17.53
2023-03-15T15:37:47.783Z,16.42
2023-03-15T15:42:49.521Z,16.69
2023-03-15T15:47:56.718Z,15.41
2023-03-15T15:52:58.653Z,14.00
2023-03-15T15:58:03.177Z,12.96
2023-03-15T16:03:16.369Z,11.56
2023-03-15T16:08:23.177Z,10.68
2023-03-15T16:13:24.937Z,10.41
2023-03-15T16:18:29.820Z,10.39
2023-03-15T16:23:31.710Z,10.18
2023-03-15T16:28:33.428Z,9.89
2023-03-15T16:33:37.442Z,9.90
2023-03-15T16:38:39.216Z,9.39
2023-03-15T16:43:43.950Z,9.32
2023-03-15T16:48:45.845Z,9.18
2023-03-15T16:53:47.558Z,8.89
2023-03-15T16:59:00.282Z,8.74
2023-03-15T17:04:05.350Z,8.23
2023-03-15T17:09:21.668Z,8.08
2023-03-15T17:14:30.637Z,7.88
2023-03-15T17:19:35.020Z,7.79
2023-03-15T17:24:39.024Z,7.41
2023-03-15T17:29:46.585Z,7.07
2023-03-15T17:34:50.530Z,6.75
2023-03-15T17:39:54.936Z,6.58
2023-03-15T17:45:00.962Z,6.52
2023-03-15T17:50:08.974Z,6.28
2023-03-15T17:55:21.272Z,6.12
2023-03-15T18:00:24.273Z,6.01
2023-03-15T18:05:30.073Z,5.85
2023-03-15T18:10:35.870Z,5.70
2023-03-15T18:15:40.111Z,5.50
2023-03-15T18:20:49.484Z,5.32
2023-03-15T18:25:52.227Z,5.17
2023-03-15T18:30:56.153Z,4.98
2023-03-15T18:35:58.147Z,4.80
2023-03-15T18:41:02.324Z,4.64
2023-03-15T18:46:04.077Z,4.53
2023-03-15T18:51:08.812Z,4.38
2023-03-15T18:56:19.424Z,4.30
2023-03-15T19:01:24.464Z,4.17
2023-03-15T19:06:28.827Z,4.04
2023-03-15T19:11:31.703Z,3.88
2023-03-15T19:16:33.693Z,3.80
2023-03-15T19:21:38.914Z,3.68
2023-03-15T19:26:40.702Z,3.57
2023-03-15T19:31:42.469Z,3.44
2023-03-15T19:36:49.379Z,3.33
2023-03-15T19:41:53.925Z,3.20
2023-03-15T19:47:00.523Z,3.10
2023-03-15T19:52:02.825Z,3.00
2023-03-15T19:57:09.912Z,2.88
2023-03-15T20:02:12.129Z,2.77
2023-03-15T20:07:13.833Z,2.67
2023-03-15T20:12:15.655Z,2.59
2023-03-15T20:17:20.617Z,2.48
2023-03-15T20:22:24.814Z,2.37
2023-03-15T20:27:26.737Z,2.26
2023-03-15T20:32:28.728Z,2.18
2023-03-15T20:37:31.091Z,2.06
2023-03-15T20:42:40.310Z,1.96
2023-03-15T20:47:42.186Z,1.88
2023-03-15T20:52:47.235Z,1.85
2023-03-15T20:57:53.388Z,1.76
2023-03-15T21:02:55.282Z,1.64
2023-03-15T21:07:59.457Z,1.51
2023-03-15T21:13:08.826Z,1.39
2023-03-15T21:18:13.006Z,1.33
2023-03-15T21:23:14.720Z,1.23
2023-03-15T21:28:18.934Z,1.17
2023-03-15T21:33:24.227Z,1.12
2023-03-15T21:38:32.695Z,1.05
2023-03-15T21:43:39.600Z,1.01
2023-03-15T21:48:44.118Z,1.02
2023-03-15T21:53:46.321Z,1.00
2023-03-15T21:58:50.566Z,0.95
2023-03-15T22:03:55.233Z,0.91
2023-03-15T22:08:59.054Z,0.91
2023-03-15T22:14:00.958Z,0.90
2023-03-15T22:19:05.441Z,0.86
2023-03-15T22:24:10.650Z,0.76
2023-03-15T22:29:14.845Z,0.68
2023-03-15T22:34:21.793Z,0.66
2023-03-15T22:39:26.126Z,0.61
2023-03-15T22:44:30.356Z,0.55
2023-03-15T22:49:32.165Z,0.50
2023-03-15T22:54:36.360Z,0.46
2023-03-15T22:59:38.897Z,0.40
2023-03-15T23:04:46.013Z,0.42
2023-03-15T23:09:47.709Z,0.41
2023-03-15T23:14:49.742Z,0.41
2023-03-15T23:19:54.592Z,0.40
2023-03-15T23:24:58.239Z,0.36
2023-03-15T23:30:00.220Z,0.33
2023-03-15T23:35:03.347Z,0.34
2023-03-15T23:40:13.873Z,0.39
2023-03-15T23:45:17.738Z,0.45
2023-03-15T23:50:26.186Z,0.54
2023-03-15T23:55:33.247Z,0.57
